^^
Saratoga-Weather Station Historical Data
Daily Summary for August 13, 2021 Units:  Metric    English   Both
Daily Weekly Monthly Yearly Custom
  High: Low: Average:
Temperature: 5.4 °C 1 °C 2.7 °C
Dew Point: 4.8 °C -0.3 °C 1.5 °C
Humidity: 96% 87% 92%
Wind Speed: 14.3km/h 0km/h 3.6km/h
Wind Gust: 17.7km/h - -
Wind- - West
Pressure: 1020.0 hPa 1014.6 hPa -
Precipitation: 4.3 mm    
Historical Graphs
 
 
Tabular Data for August 13, 2021
Time Temperature Dew Point Pressure Wind Wind Speed Wind Gust Humidity Rainfall Rate (Hourly) solar
00:01 2.2 °C 0.3 °C 1017.6 hPa WNW 6.4 km/h 11.3 km/h 87% 0.0 mm 0 W/m2
00:06 2.2 °C 0.3 °C 1017.6 hPa NNW 1.4 km/h 9.7 km/h 87% 0.0 mm 0 W/m2
00:11 2.2 °C 0.3 °C 1018.0 hPa WNW 4.7 km/h 6.4 km/h 87% 0.0 mm 0 W/m2
00:16 2.1 °C 0.3 °C 1018.0 hPa WNW 4.7 km/h 6.4 km/h 88% 0.0 mm 0 W/m2
00:21 2 °C 0.2 °C 1018.0 hPa WNW 4.7 km/h 14.5 km/h 88% 0.0 mm 0 W/m2
00:27 1.9 °C 0.1 °C 1018.0 hPa NW 1.4 km/h 9.7 km/h 88% 0.0 mm 0 W/m2
00:32 1.7 °C 0.1 °C 1018.0 hPa WNW 4.7 km/h 12.9 km/h 89% 0.0 mm 0 W/m2
00:37 1.6 °C 0 °C 1018.0 hPa West 1.4 km/h 6.4 km/h 89% 0.0 mm 0 W/m2
00:42 1.6 °C 0.1 °C 1018.3 hPa NW 6.4 km/h 12.9 km/h 90% 0.0 mm 0 W/m2
00:47 1.7 °C 0.2 °C 1018.3 hPa West 9.7 km/h 14.5 km/h 90% 0.0 mm 0 W/m2
00:52 1.8 °C 0.3 °C 1018.3 hPa WNW 4.7 km/h 9.7 km/h 90% 0.0 mm 0 W/m2
00:57 1.8 °C 0.2 °C 1018.3 hPa West 4.7 km/h 14.5 km/h 89% 0.0 mm 0 W/m2
01:02 1.8 °C 0.2 °C 1018.3 hPa WNW 6.4 km/h 8 km/h 89% 0.0 mm 0 W/m2
01:07 1.8 °C 0.2 °C 1018.3 hPa WNW 4.7 km/h 8 km/h 89% 0.0 mm 0 W/m2
01:12 1.7 °C 0.1 °C 1018.3 hPa West 3.2 km/h 9.7 km/h 89% 0.0 mm 0 W/m2
01:17 1.7 °C 0.1 °C 1018.3 hPa WNW 3.2 km/h 12.9 km/h 89% 0.0 mm 0 W/m2
01:22 1.6 °C 0 °C 1018.0 hPa WNW 7.9 km/h 12.9 km/h 89% 0.0 mm 0 W/m2
01:27 1.6 °C 0 °C 1018.0 hPa NW 3.2 km/h 9.7 km/h 89% 0.0 mm 0 W/m2
01:32 1.6 °C 0 °C 1018.3 hPa West 6.4 km/h 12.9 km/h 89% 0.0 mm 0 W/m2
01:37 1.7 °C 0.1 °C 1018.3 hPa WNW 4.7 km/h 14.5 km/h 89% 0.0 mm 0 W/m2
01:42 1.7 °C 0.1 °C 1018.3 hPa WNW 13 km/h 12.9 km/h 89% 0.0 mm 0 W/m2
01:47 1.7 °C 0.1 °C 1018.3 hPa WNW 4.7 km/h 17.7 km/h 89% 0.0 mm 0 W/m2
01:52 1.6 °C 0 °C 1018.3 hPa NW 4.7 km/h 12.9 km/h 89% 0.0 mm 0 W/m2
01:57 1.6 °C 0 °C 1018.3 hPa West 6.4 km/h 12.9 km/h 89% 0.0 mm 0 W/m2
02:02 1.5 °C -0.1 °C 1018.3 hPa WSW 11.1 km/h 11.3 km/h 89% 0.0 mm 0 W/m2
02:07 1.4 °C -0.1 °C 1018.3 hPa West 4.7 km/h 9.7 km/h 90% 0.0 mm 0 W/m2
02:12 1.3 °C -0.2 °C 1018.3 hPa West 6.4 km/h 6.4 km/h 90% 0.0 mm 0 W/m2
02:22 1.2 °C -0.3 °C 1018.3 hPa West 3.2 km/h 4.8 km/h 90% 0.0 mm 0 W/m2
02:27 1.1 °C -0.2 °C 1018.3 hPa West 4.7 km/h 9.7 km/h 91% 0.0 mm 0 W/m2
02:32 1.1 °C -0.2 °C 1018.3 hPa WNW 6.4 km/h 12.9 km/h 91% 0.0 mm 0 W/m2
02:37 1.2 °C -0.1 °C 1018.6 hPa NW 4.7 km/h 6.4 km/h 91% 0.0 mm 0 W/m2
02:42 1.2 °C -0.1 °C 1018.6 hPa WNW 4.7 km/h 9.7 km/h 91% 0.0 mm 0 W/m2
02:47 1.3 °C 0 °C 1018.6 hPa West 4.7 km/h 12.9 km/h 91% 0.0 mm 0 W/m2
02:52 1.3 °C 0 °C 1018.6 hPa West 6.4 km/h 12.9 km/h 91% 0.0 mm 0 W/m2
02:57 1.3 °C 0 °C 1018.6 hPa West 4.7 km/h 11.3 km/h 91% 0.0 mm 0 W/m2
03:02 1.4 °C 0.1 °C 1018.6 hPa West 4.7 km/h 9.7 km/h 91% 0.0 mm 0 W/m2
03:07 1.3 °C 0 °C 1018.6 hPa West 4.7 km/h 8 km/h 91% 0.0 mm 0 W/m2
03:12 1.3 °C 0 °C 1018.6 hPa WNW 4.7 km/h 11.3 km/h 91% 0.0 mm 0 W/m2
03:17 1.2 °C -0.1 °C 1018.6 hPa WNW 4.7 km/h 9.7 km/h 91% 0.0 mm 0 W/m2
03:22 1.2 °C -0.1 °C 1018.6 hPa WNW 1.4 km/h 11.3 km/h 91% 0.0 mm 0 W/m2
03:27 1.2 °C -0.1 °C 1018.6 hPa West 3.2 km/h 3.2 km/h 91% 0.0 mm 0 W/m2
03:32 1.1 °C -0.2 °C 1019.0 hPa NW 1.4 km/h 3.2 km/h 91% 0.0 mm 0 W/m2
03:37 1 °C -0.3 °C 1018.6 hPa NW 3.2 km/h 4.8 km/h 91% 0.0 mm 0 W/m2
03:42 1 °C -0.3 °C 1019.0 hPa North 6.4 km/h 6.4 km/h 91% 0.0 mm 0 W/m2
03:47 1.1 °C -0.2 °C 1019.0 hPa NW 4.7 km/h 6.4 km/h 91% 0.0 mm 0 W/m2
03:52 1.1 °C -0.2 °C 1019.0 hPa WNW 1.4 km/h 9.7 km/h 91% 0.0 mm 0 W/m2
03:57 1.1 °C -0.2 °C 1019.0 hPa West 1.4 km/h 4.8 km/h 91% 0.0 mm 0 W/m2
04:02 1 °C -0.3 °C 1019.0 hPa WSW 1.4 km/h 4.8 km/h 91% 0.0 mm 0 W/m2
04:07 1.1 °C -0.1 °C 1019.0 hPa Calm   4.8 km/h 92% 0.0 mm 0 W/m2
04:12 1.1 °C -0.1 °C 1019.0 hPa WNW 3.2 km/h 9.7 km/h 92% 0.0 mm 0 W/m2
04:17 1.1 °C -0.2 °C 1019.0 hPa WNW 4.7 km/h 9.7 km/h 91% 0.0 mm 0 W/m2
04:22 1 °C -0.3 °C 1019.0 hPa West 3.2 km/h 4.8 km/h 91% 0.0 mm 0 W/m2
04:27 1 °C -0.2 °C 1019.0 hPa West 4.7 km/h 9.7 km/h 92% 0.0 mm 0 W/m2
04:32 1.1 °C -0.1 °C 1019.3 hPa NW 7.9 km/h 11.3 km/h 92% 0.0 mm 0 W/m2
04:37 1.1 °C -0.2 °C 1019.3 hPa WNW 3.2 km/h 6.4 km/h 91% 0.0 mm 0 W/m2
04:42 1.2 °C -0.1 °C 1019.3 hPa WNW 3.2 km/h 6.4 km/h 91% 0.0 mm 0 W/m2
04:47 1.2 °C -0.1 °C 1019.3 hPa West 4.7 km/h 9.7 km/h 91% 0.0 mm 0 W/m2
04:52 1.2 °C -0.1 °C 1019.3 hPa West 3.2 km/h 6.4 km/h 91% 0.0 mm 0 W/m2
04:57 1.2 °C -0.1 °C 1019.3 hPa WSW 4.7 km/h 11.3 km/h 91% 0.0 mm 0 W/m2
05:02 1.2 °C -0.1 °C 1019.3 hPa West 3.2 km/h 11.3 km/h 91% 0.0 mm 0 W/m2
05:07 1.2 °C -0.1 °C 1019.3 hPa WSW 6.4 km/h 12.9 km/h 91% 0.0 mm 0 W/m2
05:12 1.3 °C 0 °C 1019.3 hPa WNW 6.4 km/h 11.3 km/h 91% 0.0 mm 0 W/m2
05:17 1.4 °C 0.1 °C 1019.3 hPa WNW 13 km/h 14.5 km/h 91% 0.0 mm 0 W/m2
05:22 1.6 °C 0.3 °C 1019.6 hPa West 11.1 km/h 11.3 km/h 91% 0.0 mm 0 W/m2
05:27 1.6 °C 0.3 °C 1019.3 hPa West 4.7 km/h 14.5 km/h 91% 0.0 mm 0 W/m2
05:32 1.7 °C 0.4 °C 1019.3 hPa West 4.7 km/h 9.7 km/h 91% 0.0 mm 0 W/m2
05:37 1.7 °C 0.4 °C 1019.3 hPa West 4.7 km/h 12.9 km/h 91% 0.0 mm 0 W/m2
05:42 1.8 °C 0.3 °C 1019.3 hPa WNW 6.4 km/h 11.3 km/h 90% 0.0 mm 0 W/m2
05:47 1.8 °C 0.3 °C 1019.3 hPa WNW 3.2 km/h 11.3 km/h 90% 0.0 mm 0 W/m2
05:52 1.8 °C 0.3 °C 1019.6 hPa WNW 4.7 km/h 11.3 km/h 90% 0.0 mm 0 W/m2
05:58 1.8 °C 0.3 °C 1019.6 hPa West 4.7 km/h 9.7 km/h 90% 0.0 mm 0 W/m2
06:03 1.8 °C 0.3 °C 1019.6 hPa WNW 3.2 km/h 11.3 km/h 90% 0.0 mm 0 W/m2
06:08 1.8 °C 0.3 °C 1019.6 hPa West 6.4 km/h 6.4 km/h 90% 0.0 mm 0 W/m2
06:13 1.8 °C 0.3 °C 1019.6 hPa NW 1.4 km/h 3.2 km/h 90% 0.0 mm 0 W/m2
06:18 1.8 °C 0.3 °C 1019.6 hPa WNW 1.4 km/h 4.8 km/h 90% 0.0 mm 0 W/m2
06:23 1.8 °C 0.5 °C 1019.6 hPa WNW 3.2 km/h 4.8 km/h 91% 0.0 mm 0 W/m2
06:28 1.7 °C 0.4 °C 1019.6 hPa West 1.4 km/h 4.8 km/h 91% 0.0 mm 0 W/m2
06:33 1.7 °C 0.4 °C 1019.3 hPa West 11.1 km/h 11.3 km/h 91% 0.0 mm 0 W/m2
06:38 1.8 °C 0.5 °C 1019.3 hPa West 4.7 km/h 6.4 km/h 91% 0.0 mm 0 W/m2
06:43 1.9 °C 0.4 °C 1019.3 hPa West 4.7 km/h 6.4 km/h 90% 0.0 mm 0 W/m2
06:48 1.9 °C 0.4 °C 1019.3 hPa WNW 1.4 km/h 6.4 km/h 90% 0.0 mm 0 W/m2
06:53 1.8 °C 0.3 °C 1019.6 hPa NW 1.4 km/h 4.8 km/h 90% 0.0 mm 0 W/m2
06:58 1.7 °C 0.2 °C 1019.6 hPa NW 1.4 km/h 6.4 km/h 90% 0.0 mm 0 W/m2
07:03 1.7 °C 0.4 °C 1019.3 hPa Calm   1.6 km/h 91% 0.0 mm 0 W/m2
07:08 1.6 °C 0.3 °C 1019.6 hPa Calm   3.2 km/h 91% 0.0 mm 0 W/m2
07:13 1.5 °C 0.2 °C 1019.6 hPa West 3.2 km/h 4.8 km/h 91% 0.0 mm 0 W/m2
07:18 1.4 °C 0.1 °C 1019.6 hPa WNW 1.4 km/h 4.8 km/h 91% 0.0 mm 0 W/m2
07:23 1.4 °C 0.2 °C 1019.6 hPa WNW 3.2 km/h 8 km/h 92% 0.0 mm 0 W/m2
07:28 1.5 °C 0.3 °C 1019.6 hPa West 3.2 km/h 9.7 km/h 92% 0.0 mm 0 W/m2
07:33 1.6 °C 0.3 °C 1019.6 hPa WSW 3.2 km/h 9.7 km/h 91% 0.0 mm 0 W/m2
07:38 1.6 °C 0.3 °C 1019.6 hPa WNW 3.2 km/h 6.4 km/h 91% 0.0 mm 0 W/m2
07:43 1.5 °C 0.2 °C 1019.6 hPa WNW 1.4 km/h 9.7 km/h 91% 0.0 mm 0 W/m2
07:48 1.5 °C 0.2 °C 1019.6 hPa WSW 6.4 km/h 12.9 km/h 91% 0.0 mm 0 W/m2
07:53 1.5 °C 0.2 °C 1019.6 hPa West 4.7 km/h 6.4 km/h 91% 0.0 mm 0 W/m2
07:58 1.4 °C 0.1 °C 1019.6 hPa West 6.4 km/h 8 km/h 91% 0.0 mm 0 W/m2
08:03 1.4 °C 0.1 °C 1019.3 hPa WSW 1.4 km/h 9.7 km/h 91% 0.0 mm 0 W/m2
08:08 1.4 °C 0.1 °C 1019.3 hPa WNW 3.2 km/h 14.5 km/h 91% 0.0 mm 0 W/m2
08:13 1.4 °C 0.1 °C 1019.6 hPa WSW 4.7 km/h 11.3 km/h 91% 0.0 mm 0 W/m2
08:18 1.4 °C 0.1 °C 1019.6 hPa WNW 4.7 km/h 14.5 km/h 91% 0.0 mm 0 W/m2
08:23 1.3 °C 0 °C 1019.6 hPa WSW 11.1 km/h 11.3 km/h 91% 0.0 mm 0 W/m2
08:28 1.3 °C 0 °C 1019.6 hPa WNW 6.4 km/h 14.5 km/h 91% 0.0 mm 0 W/m2
08:33 1.3 °C 0 °C 1019.6 hPa West 3.2 km/h 6.4 km/h 91% 0.0 mm 0 W/m2
08:38 1.3 °C 0 °C 1019.6 hPa NW 7.9 km/h 12.9 km/h 91% 0.0 mm 5 W/m2
08:43 1.3 °C 0 °C 1019.6 hPa West 14.3 km/h 14.5 km/h 91% 0.0 mm 7 W/m2
08:48 1.3 °C 0 °C 1019.6 hPa WNW 6.4 km/h 12.9 km/h 91% 0.0 mm 9 W/m2
08:53 1.3 °C 0 °C 1019.6 hPa West 9.7 km/h 12.9 km/h 91% 0.0 mm 12 W/m2
08:58 1.3 °C 0 °C 1019.6 hPa West 4.7 km/h 12.9 km/h 91% 0.0 mm 16 W/m2
09:03 1.3 °C 0 °C 1019.6 hPa WSW 7.9 km/h 14.5 km/h 91% 0.0 mm 19 W/m2
09:08 1.3 °C -0.2 °C 1019.6 hPa West 6.4 km/h 12.9 km/h 90% 0.0 mm 23 W/m2
09:13 1.3 °C -0.2 °C 1019.6 hPa West 3.2 km/h 9.7 km/h 90% 0.0 mm 26 W/m2
09:18 1.3 °C 0 °C 1019.6 hPa WNW 3.2 km/h 11.3 km/h 91% 0.0 mm 30 W/m2
09:23 1.2 °C -0.1 °C 1019.6 hPa WNW 4.7 km/h 8 km/h 91% 0.0 mm 33 W/m2
09:28 1.2 °C -0.1 °C 1020.0 hPa West 14.3 km/h 16.1 km/h 91% 0.0 mm 35 W/m2
09:33 1.2 °C -0.1 °C 1020.0 hPa West 6.4 km/h 11.3 km/h 91% 0.0 mm 39 W/m2
09:38 1.3 °C 0 °C 1020.0 hPa SSW 6.4 km/h 9.7 km/h 91% 0.0 mm 51 W/m2
09:43 1.3 °C 0 °C 1020.0 hPa West 4.7 km/h 6.4 km/h 91% 0.0 mm 53 W/m2
09:48 1.3 °C -0.2 °C 1020.0 hPa WNW 4.7 km/h 11.3 km/h 90% 0.0 mm 51 W/m2
09:53 1.3 °C 0 °C 1020.0 hPa WSW 3.2 km/h 11.3 km/h 91% 0.0 mm 67 W/m2
09:58 1.3 °C 0 °C 1020.0 hPa West 4.7 km/h 12.9 km/h 91% 0.0 mm 72 W/m2
10:03 1.3 °C 0 °C 1020.0 hPa West 6.4 km/h 11.3 km/h 91% 0.0 mm 67 W/m2
10:08 1.4 °C -0.1 °C 1020.0 hPa SW 7.9 km/h 9.7 km/h 90% 0.0 mm 72 W/m2
10:13 1.4 °C -0.1 °C 1020.0 hPa West 6.4 km/h 14.5 km/h 90% 0.0 mm 77 W/m2
10:18 1.4 °C -0.1 °C 1020.0 hPa WSW 3.2 km/h 11.3 km/h 90% 0.0 mm 88 W/m2
10:23 1.5 °C 0 °C 1020.0 hPa West 11.1 km/h 12.9 km/h 90% 0.0 mm 93 W/m2
10:28 1.6 °C 0.1 °C 1019.6 hPa West 3.2 km/h 9.7 km/h 90% 0.0 mm 95 W/m2
10:33 1.6 °C 0.1 °C 1020.0 hPa West 3.2 km/h 9.7 km/h 90% 0.0 mm 91 W/m2
10:38 1.6 °C 0.1 °C 1020.0 hPa NW 6.4 km/h 9.7 km/h 90% 0.0 mm 97 W/m2
10:43 1.7 °C 0.2 °C 1020.0 hPa WNW 4.7 km/h 6.4 km/h 90% 0.0 mm 97 W/m2
10:48 1.7 °C 0.2 °C 1020.0 hPa West 6.4 km/h 6.4 km/h 90% 0.0 mm 98 W/m2
10:53 1.7 °C 0.2 °C 1020.0 hPa WNW 4.7 km/h 11.3 km/h 90% 0.0 mm 111 W/m2
10:58 1.7 °C 0.2 °C 1020.0 hPa West 3.2 km/h 4.8 km/h 90% 0.0 mm 123 W/m2
11:03 1.8 °C 0.2 °C 1020.0 hPa West 4.7 km/h 9.7 km/h 89% 0.0 mm 128 W/m2
11:08 1.9 °C 0.3 °C 1019.6 hPa Calm   4.8 km/h 89% 0.0 mm 125 W/m2
11:13 1.9 °C 0.3 °C 1019.6 hPa West 3.2 km/h 9.7 km/h 89% 0.0 mm 130 W/m2
11:18 2 °C 0.4 °C 1019.6 hPa WNW 4.7 km/h 6.4 km/h 89% 0.0 mm 141 W/m2
11:23 2.1 °C 0.5 °C 1019.6 hPa NW 1.4 km/h 4.8 km/h 89% 0.0 mm 137 W/m2
11:28 2.2 °C 0.6 °C 1019.6 hPa SW 3.2 km/h 4.8 km/h 89% 0.0 mm 146 W/m2
11:33 2.2 °C 0.6 °C 1020.0 hPa WNW 4.7 km/h 6.4 km/h 89% 0.0 mm 132 W/m2
11:38 2.3 °C 0.5 °C 1019.6 hPa West 1.4 km/h 6.4 km/h 88% 0.0 mm 139 W/m2
11:43 2.3 °C 0.5 °C 1019.6 hPa WNW 3.2 km/h 4.8 km/h 88% 0.0 mm 130 W/m2
11:48 2.3 °C 0.5 °C 1019.6 hPa WNW 1.4 km/h 3.2 km/h 88% 0.0 mm 139 W/m2
11:53 2.3 °C 0.5 °C 1019.6 hPa West 1.4 km/h 4.8 km/h 88% 0.0 mm 134 W/m2
11:58 2.3 °C 0.5 °C 1019.6 hPa WNW 6.4 km/h 9.7 km/h 88% 0.0 mm 127 W/m2
12:03 2.3 °C 0.5 °C 1019.6 hPa WNW 3.2 km/h 9.7 km/h 88% 0.0 mm 128 W/m2
12:08 2.3 °C 0.5 °C 1019.3 hPa NNW 1.4 km/h 6.4 km/h 88% 0.0 mm 116 W/m2
12:13 2.3 °C 0.5 °C 1019.3 hPa ESE 1.4 km/h 11.3 km/h 88% 0.0 mm 120 W/m2
12:18 2.3 °C 0.5 °C 1019.3 hPa West 1.4 km/h 8 km/h 88% 0.0 mm 120 W/m2
12:23 2.3 °C 0.5 °C 1019.3 hPa NW 4.7 km/h 4.8 km/h 88% 0.0 mm 130 W/m2
12:28 2.3 °C 0.5 °C 1019.0 hPa ESE 1.4 km/h 11.3 km/h 88% 0.0 mm 127 W/m2
12:33 2.3 °C 0.5 °C 1019.0 hPa WSW 3.2 km/h 12.9 km/h 88% 0.0 mm 120 W/m2
12:38 2.3 °C 0.5 °C 1019.0 hPa NW 6.4 km/h 12.9 km/h 88% 0.0 mm 118 W/m2
12:43 2.3 °C 0.5 °C 1019.0 hPa Calm   4.8 km/h 88% 0.0 mm 125 W/m2
12:48 2.3 °C 0.7 °C 1019.0 hPa WNW 1.4 km/h 6.4 km/h 89% 0.0 mm 116 W/m2
12:53 2.4 °C 0.8 °C 1019.0 hPa North 1.4 km/h 6.4 km/h 89% 0.0 mm 111 W/m2
12:58 2.4 °C 0.8 °C 1018.6 hPa North 6.4 km/h 8 km/h 89% 0.0 mm 114 W/m2
13:03 2.4 °C 0.8 °C 1018.6 hPa NW 1.4 km/h 9.7 km/h 89% 0.0 mm 116 W/m2
13:08 2.4 °C 0.8 °C 1018.6 hPa NNW 1.4 km/h 6.4 km/h 89% 0.0 mm 107 W/m2
13:13 2.5 °C 0.9 °C 1018.3 hPa Calm   6.4 km/h 89% 0.0 mm 111 W/m2
13:18 2.6 °C 1 °C 1018.3 hPa West 1.4 km/h 4.8 km/h 89% 0.0 mm 120 W/m2
13:23 2.6 °C 1 °C 1018.3 hPa Calm   1.6 km/h 89% 0.0 mm 121 W/m2
13:28 2.7 °C 1.1 °C 1018.0 hPa WNW 4.7 km/h 4.8 km/h 89% 0.0 mm 102 W/m2
13:33 2.8 °C 1 °C 1018.0 hPa Calm   3.2 km/h 88% 0.0 mm 88 W/m2
13:38 2.8 °C 1.2 °C 1018.0 hPa Calm   1.6 km/h 89% 0.0 mm 74 W/m2
13:43 2.9 °C 1.1 °C 1018.0 hPa WNW 3.2 km/h 6.4 km/h 88% 0.0 mm 69 W/m2
13:48 2.9 °C 1.1 °C 1018.0 hPa Calm   3.2 km/h 88% 0.0 mm 70 W/m2
13:53 2.9 °C 1.1 °C 1018.0 hPa Calm   6.4 km/h 88% 0.0 mm 60 W/m2
13:58 2.8 °C 1 °C 1017.6 hPa NW 1.4 km/h 4.8 km/h 88% 0.0 mm 54 W/m2
14:03 2.8 °C 1.2 °C 1017.6 hPa Calm     89% 0.0 mm 49 W/m2
14:08 2.8 °C 1 °C 1017.6 hPa WNW 1.4 km/h 3.2 km/h 88% 0.0 mm 47 W/m2
14:13 2.8 °C 1.2 °C 1017.3 hPa Calm   4.8 km/h 89% 0.0 mm 51 W/m2
14:18 2.8 °C 1.2 °C 1017.3 hPa Calm   1.6 km/h 89% 0.0 mm 56 W/m2
14:23 2.8 °C 1.2 °C 1016.9 hPa Calm   3.2 km/h 89% 0.0 mm 54 W/m2
14:28 2.8 °C 1.2 °C 1016.9 hPa WSW 4.7 km/h 6.4 km/h 89% 0.0 mm 53 W/m2
14:33 2.9 °C 1.3 °C 1016.9 hPa Calm   3.2 km/h 89% 0.0 mm 49 W/m2
14:39 2.9 °C 1.3 °C 1016.9 hPa Calm     89% 0.0 mm 51 W/m2
14:44 2.9 °C 1.3 °C 1016.9 hPa Calm     89% 0.0 mm 37 W/m2
14:49 3 °C 1.4 °C 1016.9 hPa Calm   1.6 km/h 89% 0.0 mm 37 W/m2
14:54 3.1 °C 1.5 °C 1016.6 hPa Calm     89% 0.0 mm 46 W/m2
14:59 3.1 °C 1.5 °C 1016.6 hPa NE 1.4 km/h 1.6 km/h 89% 0.0 mm 51 W/m2
15:04 3.2 °C 1.7 °C 1016.6 hPa NE 4.7 km/h 4.8 km/h 90% 0.0 mm 42 W/m2
15:09 3.3 °C 1.8 °C 1016.6 hPa NE 1.4 km/h 8 km/h 90% 0.0 mm 37 W/m2
15:19 3.4 °C 1.9 °C 1016.6 hPa Calm   8 km/h 90% 0.0 mm 39 W/m2
15:24 3.4 °C 1.9 °C 1016.6 hPa Calm   3.2 km/h 90% 0.0 mm 40 W/m2
15:29 3.5 °C 2 °C 1016.6 hPa NW 4.7 km/h 9.7 km/h 90% 0.0 mm 42 W/m2
15:34 3.5 °C 2.2 °C 1016.6 hPa SW 3.2 km/h 8 km/h 91% 0.0 mm 44 W/m2
15:39 3.6 °C 2.3 °C 1016.6 hPa NW 1.4 km/h 4.8 km/h 91% 0.0 mm 37 W/m2
15:44 3.6 °C 2.3 °C 1016.3 hPa Calm   8 km/h 91% 0.0 mm 28 W/m2
15:49 3.6 °C 2.3 °C 1016.6 hPa NW 1.4 km/h 3.2 km/h 91% 0.0 mm 26 W/m2
15:54 3.6 °C 2.4 °C 1016.6 hPa WNW 4.7 km/h 8 km/h 92% 0.0 mm 21 W/m2
15:59 3.6 °C 2.4 °C 1016.6 hPa WNW 1.4 km/h 4.8 km/h 92% 0.0 mm 16 W/m2
16:04 3.6 °C 2.4 °C 1016.6 hPa NW 1.4 km/h 6.4 km/h 92% 0.0 mm 16 W/m2
16:09 3.6 °C 2.6 °C 1016.3 hPa NNW 4.7 km/h 6.4 km/h 93% 0.0 mm 16 W/m2
16:14 3.6 °C 2.6 °C 1016.3 hPa West 1.4 km/h 3.2 km/h 93% 0.0 mm 12 W/m2
16:19 3.7 °C 2.7 °C 1016.3 hPa NW 1.4 km/h 3.2 km/h 93% 0.2 mm 11 W/m2
16:24 3.6 °C 2.7 °C 1016.3 hPa NW 1.4 km/h 3.2 km/h 94% 0.2 mm 9 W/m2
16:29 3.6 °C 2.7 °C 1016.3 hPa South 1.4 km/h 1.6 km/h 94% 0.5 mm 9 W/m2
16:34 3.6 °C 2.7 °C 1015.9 hPa Calm   4.8 km/h 94% 0.5 mm 5 W/m2
16:39 3.6 °C 2.7 °C 1015.9 hPa Calm   1.6 km/h 94% 0.5 mm 5 W/m2
16:44 3.7 °C 2.8 °C 1015.9 hPa SW 1.4 km/h 3.2 km/h 94% 0.8 mm 5 W/m2
16:49 3.7 °C 2.8 °C 1015.9 hPa NW 1.4 km/h 3.2 km/h 94% 0.8 mm 5 W/m2
16:54 3.7 °C 2.8 °C 1015.6 hPa ENE 1.4 km/h 1.6 km/h 94% 0.8 mm 9 W/m2
16:59 3.7 °C 2.8 °C 1015.6 hPa North 1.4 km/h 3.2 km/h 94% 1.0 mm 0 W/m2
17:04 3.7 °C 2.8 °C 1015.6 hPa Calm   4.8 km/h 94% 1.0 mm 0 W/m2
17:09 3.7 °C 3 °C 1015.6 hPa Calm   1.6 km/h 95% 1.0 mm 0 W/m2
17:14 3.7 °C 3 °C 1015.6 hPa Calm   4.8 km/h 95% 1.0 mm 0 W/m2
17:19 3.7 °C 3 °C 1015.2 hPa SE 4.7 km/h 4.8 km/h 95% 0.8 mm 0 W/m2
17:24 3.7 °C 3 °C 1015.2 hPa Calm     95% 1.0 mm 0 W/m2
17:29 3.7 °C 3 °C 1015.2 hPa Calm     95% 0.8 mm 0 W/m2
17:34 3.7 °C 3 °C 1015.2 hPa Calm     95% 0.5 mm 0 W/m2
17:39 3.7 °C 3 °C 1015.2 hPa Calm     95% 0.5 mm 0 W/m2
17:44 3.7 °C 3 °C 1015.2 hPa Calm   3.2 km/h 95% 0.5 mm 0 W/m2
17:49 3.7 °C 3 °C 1015.2 hPa Calm     95% 0.5 mm 0 W/m2
17:54 3.7 °C 3 °C 1014.9 hPa Calm     95% 0.8 mm 0 W/m2
17:59 3.7 °C 3 °C 1015.2 hPa North 1.4 km/h 1.6 km/h 95% 0.5 mm 0 W/m2
18:04 3.7 °C 3 °C 1015.2 hPa Calm     95% 0.5 mm 0 W/m2
18:09 3.7 °C 3 °C 1015.2 hPa Calm   1.6 km/h 95% 0.5 mm 0 W/m2
18:14 3.7 °C 3 °C 1014.9 hPa Calm   1.6 km/h 95% 0.5 mm 0 W/m2
18:19 3.7 °C 3 °C 1014.9 hPa Calm     95% 0.8 mm 0 W/m2
18:24 3.7 °C 3 °C 1014.9 hPa Calm   1.6 km/h 95% 0.5 mm 0 W/m2
18:29 3.7 °C 3 °C 1014.9 hPa Calm   1.6 km/h 95% 0.5 mm 0 W/m2
18:34 3.8 °C 3.2 °C 1014.9 hPa NNW 1.4 km/h 4.8 km/h 96% 0.5 mm 0 W/m2
18:39 3.8 °C 3.2 °C 1014.9 hPa NNW 1.4 km/h 3.2 km/h 96% 0.5 mm 0 W/m2
18:44 3.9 °C 3.3 °C 1014.9 hPa WNW 3.2 km/h 4.8 km/h 96% 0.5 mm 0 W/m2
18:49 3.9 °C 3.3 °C 1014.9 hPa Calm   4.8 km/h 96% 0.5 mm 0 W/m2
18:54 4 °C 3.4 °C 1014.9 hPa West 1.4 km/h 3.2 km/h 96% 0.2 mm 0 W/m2
18:59 4.1 °C 3.5 °C 1014.9 hPa WNW 3.2 km/h 4.8 km/h 96% 0.2 mm 0 W/m2
19:04 4.2 °C 3.6 °C 1014.9 hPa WNW 3.2 km/h 3.2 km/h 96% 0.2 mm 0 W/m2
19:09 4.3 °C 3.7 °C 1014.9 hPa West 3.2 km/h 6.4 km/h 96% 0.5 mm 0 W/m2
19:14 4.4 °C 3.8 °C 1014.9 hPa West 6.4 km/h 16.1 km/h 96% 0.5 mm 0 W/m2
19:19 4.5 °C 3.9 °C 1014.9 hPa West 6.4 km/h 14.5 km/h 96% 0.2 mm 0 W/m2
19:24 4.7 °C 4.1 °C 1014.6 hPa WSW 7.9 km/h 12.9 km/h 96% 0.2 mm 0 W/m2
19:29 4.7 °C 4.1 °C 1014.6 hPa NW 3.2 km/h 14.5 km/h 96% 0.2 mm 0 W/m2
19:34 4.8 °C 4.2 °C 1014.6 hPa WNW 4.7 km/h 17.7 km/h 96% 0.2 mm 0 W/m2
19:39 4.8 °C 4.2 °C 1014.6 hPa WNW 3.2 km/h 6.4 km/h 96% 0.2 mm 0 W/m2
19:44 4.8 °C 4.2 °C 1014.9 hPa WNW 1.4 km/h 11.3 km/h 96% 0.2 mm 0 W/m2
19:49 4.8 °C 4.2 °C 1014.9 hPa NW 3.2 km/h 4.8 km/h 96% 0.2 mm 0 W/m2
19:59 4.9 °C 4.3 °C 1014.9 hPa WNW 3.2 km/h 4.8 km/h 96% 0.5 mm 0 W/m2
20:04 5 °C 4.4 °C 1014.6 hPa WNW 6.4 km/h 14.5 km/h 96% 0.5 mm 0 W/m2
20:09 5.1 °C 4.5 °C 1014.6 hPa West 4.7 km/h 6.4 km/h 96% 0.2 mm 0 W/m2
20:14 5.1 °C 4.5 °C 1014.6 hPa West 4.7 km/h 9.7 km/h 96% 0.2 mm 0 W/m2
20:24 5.1 °C 4.5 °C 1014.6 hPa West 6.4 km/h 6.4 km/h 96% 0.5 mm 0 W/m2
20:29 5.1 °C 4.5 °C 1014.6 hPa West 1.4 km/h 9.7 km/h 96% 0.5 mm 0 W/m2
20:34 5.1 °C 4.5 °C 1014.6 hPa WNW 4.7 km/h 6.4 km/h 96% 0.5 mm 0 W/m2
20:39 5.1 °C 4.5 °C 1014.6 hPa WNW 6.4 km/h 9.7 km/h 96% 0.5 mm 0 W/m2
20:44 5.1 °C 4.5 °C 1014.6 hPa West 4.7 km/h 6.4 km/h 96% 0.5 mm 0 W/m2
20:49 5.1 °C 4.5 °C 1014.6 hPa West 3.2 km/h 11.3 km/h 96% 0.5 mm 0 W/m2
20:54 5.1 °C 4.5 °C 1014.6 hPa NW 4.7 km/h 8 km/h 96% 0.5 mm 0 W/m2
20:59 5.1 °C 4.5 °C 1014.9 hPa West 4.7 km/h 11.3 km/h 96% 0.5 mm 0 W/m2
21:04 5.1 °C 4.5 °C 1014.9 hPa West 1.4 km/h 12.9 km/h 96% 0.5 mm 0 W/m2
21:14 5.1 °C 4.5 °C 1014.6 hPa WNW 3.2 km/h 12.9 km/h 96% 0.5 mm 0 W/m2
21:19 5.2 °C 4.6 °C 1014.6 hPa West 4.7 km/h 11.3 km/h 96% 0.5 mm 0 W/m2
21:24 5.2 °C 4.6 °C 1014.9 hPa WNW 3.2 km/h 12.9 km/h 96% 0.5 mm 0 W/m2
21:29 5.1 °C 4.5 °C 1014.9 hPa WNW 3.2 km/h 8 km/h 96% 0.5 mm 0 W/m2
21:34 5.1 °C 4.5 °C 1014.9 hPa WSW 3.2 km/h 11.3 km/h 96% 0.5 mm 0 W/m2
21:39 5.2 °C 4.6 °C 1014.9 hPa West 6.4 km/h 11.3 km/h 96% 0.8 mm 0 W/m2
21:44 5.2 °C 4.6 °C 1014.9 hPa WSW 3.2 km/h 9.7 km/h 96% 0.5 mm 0 W/m2
21:49 5.2 °C 4.6 °C 1014.9 hPa WNW 4.7 km/h 8 km/h 96% 0.5 mm 0 W/m2
21:54 5.3 °C 4.7 °C 1014.9 hPa NW 14.3 km/h 16.1 km/h 96% 0.8 mm 0 W/m2
21:59 5.3 °C 4.7 °C 1014.9 hPa WNW 4.7 km/h 11.3 km/h 96% 0.8 mm 0 W/m2
22:04 5.3 °C 4.7 °C 1014.9 hPa NW 6.4 km/h 16.1 km/h 96% 0.8 mm 0 W/m2
22:09 5.3 °C 4.7 °C 1014.9 hPa WNW 4.7 km/h 12.9 km/h 96% 0.5 mm 0 W/m2
22:14 5.4 °C 4.8 °C 1014.9 hPa West 3.2 km/h 9.7 km/h 96% 0.5 mm 0 W/m2
22:19 5.4 °C 4.8 °C 1014.9 hPa WNW 9.7 km/h 9.7 km/h 96% 0.8 mm 0 W/m2
22:24 5.4 °C 4.7 °C 1014.9 hPa West 1.4 km/h 6.4 km/h 95% 0.8 mm 0 W/m2
22:29 5.4 °C 4.7 °C 1014.9 hPa West 3.2 km/h 6.4 km/h 95% 0.5 mm 0 W/m2
22:34 5.4 °C 4.7 °C 1015.2 hPa WNW 3.2 km/h 6.4 km/h 95% 0.5 mm 0 W/m2
22:39 5.4 °C 4.7 °C 1015.2 hPa NW 3.2 km/h 6.4 km/h 95% 0.5 mm 0 W/m2
22:44 5.4 °C 4.7 °C 1015.2 hPa NW 3.2 km/h 4.8 km/h 95% 0.5 mm 0 W/m2
22:49 5.4 °C 4.7 °C 1015.2 hPa WNW 1.4 km/h 4.8 km/h 95% 0.5 mm 0 W/m2
22:54 5.4 °C 4.7 °C 1015.2 hPa WNW 3.2 km/h 3.2 km/h 95% 0.5 mm 0 W/m2
22:59 5.3 °C 4.6 °C 1015.2 hPa West 3.2 km/h 4.8 km/h 95% 0.5 mm 0 W/m2
23:04 5.3 °C 4.6 °C 1015.2 hPa WNW 3.2 km/h 4.8 km/h 95% 0.5 mm 0 W/m2
23:09 5.3 °C 4.6 °C 1015.2 hPa WSW 4.7 km/h 6.4 km/h 95% 0.5 mm 0 W/m2
23:14 5.3 °C 4.6 °C 1015.2 hPa WSW 3.2 km/h 6.4 km/h 95% 0.5 mm 0 W/m2
23:19 5.3 °C 4.6 °C 1015.6 hPa NW 4.7 km/h 6.4 km/h 95% 0.5 mm 0 W/m2
23:24 5.3 °C 4.6 °C 1015.6 hPa West 4.7 km/h 6.4 km/h 95% 0.5 mm 0 W/m2
23:29 5.3 °C 4.6 °C 1015.6 hPa West 3.2 km/h 9.7 km/h 95% 0.5 mm 0 W/m2
23:34 5.3 °C 4.6 °C 1015.6 hPa NW 4.7 km/h 11.3 km/h 95% 0.5 mm 0 W/m2
23:39 5.3 °C 4.6 °C 1015.6 hPa WSW 3.2 km/h 6.4 km/h 95% 0.5 mm 0 W/m2
23:44 5.3 °C 4.6 °C 1015.6 hPa WNW 3.2 km/h 11.3 km/h 95% 0.5 mm 0 W/m2
23:49 5.2 °C 4.5 °C 1015.9 hPa WNW 7.9 km/h 11.3 km/h 95% 0.5 mm 0 W/m2
23:54 5.2 °C 4.5 °C 1015.9 hPa West 4.7 km/h 6.4 km/h 95% 0.5 mm 0 W/m2
23:59 5.2 °C 4.5 °C 1015.9 hPa West 3.2 km/h 6.4 km/h 95% 0.5 mm 0 W/m2
Juneau County Weather
Compliments of Weather Underground - 4 mb